Time;durP1;ratioP1;P1;durP2;ratioP2;P2;SDS_P1;SDS_P2;PMS_P1;PMS_P2;Temp;Humidity;BMP_temperature;BMP_pressure;BME280_temperature;BME280_humidity;BME280_pressure;Samples;Min_cycle;Max_cycle;Signal;HPM_P1;HPM_P2
2023/12/29 00:01:01;;;;;;;11.35;2.72;;;;;;;10.85;100.00;100675.59;5100831;28;20089;-65
2023/12/29 00:03:49;;;;;;;11.00;2.92;;;;;;;10.83;100.00;100656.75;5090278;28;20455;-65
2023/12/29 00:06:40;;;;;;;11.00;2.92;;;;;;;10.83;100.00;100664.13;5093767;28;20105;-65
2023/12/29 00:09:44;;;;;;;12.95;3.22;;;;;;;10.83;100.00;100655.97;5078292;28;20386;-65
2023/12/29 00:12:32;;;;;;;9.18;2.53;;;;;;;10.81;100.00;100658.13;5087949;28;20044;-66
2023/12/29 00:15:20;;;;;;;9.43;2.75;;;;;;;10.80;100.00;100648.31;5089090;28;20044;-65
2023/12/29 00:18:08;;;;;;;8.68;3.00;;;;;;;10.81;100.00;100660.84;5076401;28;20052;-67
2023/12/29 00:20:56;;;;;;;14.65;3.40;;;;;;;10.78;100.00;100662.22;5082156;28;20044;-65
2023/12/29 00:23:54;;;;;;;10.60;3.53;;;;;;;10.82;100.00;100657.03;5078615;28;20044;-66
2023/12/29 00:26:42;;;;;;;9.35;3.20;;;;;;;10.82;100.00;100649.69;5114159;28;20047;-65
2023/12/29 00:29:33;;;;;;;13.25;3.13;;;;;;;10.81;100.00;100650.75;5099265;28;20055;-65
2023/12/29 00:32:22;;;;;;;10.80;2.80;;;;;;;10.82;100.00;100652.41;5114951;28;20047;-65
2023/12/29 00:35:11;;;;;;;9.90;2.97;;;;;;;10.79;100.00;100644.78;5100760;28;20046;-65
2023/12/29 00:37:59;;;;;;;9.35;3.13;;;;;;;10.76;100.00;100641.78;5111973;28;20091;-66
2023/12/29 00:40:48;;;;;;;9.88;3.15;;;;;;;10.74;100.00;100657.59;5113147;28;20047;-66
2023/12/29 00:43:36;;;;;;;12.07;2.85;;;;;;;10.73;100.00;100631.44;5094499;28;20040;-66
2023/12/29 00:46:24;;;;;;;9.75;2.65;;;;;;;10.76;100.00;100603.63;5080172;28;20093;-65
2023/12/29 00:49:12;;;;;;;11.73;2.80;;;;;;;10.74;100.00;100616.72;5078705;28;20407;-65
2023/12/29 00:52:02;;;;;;;10.02;3.08;;;;;;;10.74;100.00;100633.06;5062563;28;20043;-66
2023/12/29 00:54:50;;;;;;;10.43;3.00;;;;;;;10.73;100.00;100626.00;5058795;28;20063;-66
2023/12/29 00:57:38;;;;;;;13.85;3.15;;;;;;;10.71;100.00;100633.63;5074787;28;20095;-66
2023/12/29 01:00:26;;;;;;;9.23;3.00;;;;;;;10.66;100.00;100616.16;5059226;28;20051;-66
2023/12/29 01:03:15;;;;;;;7.45;2.42;;;;;;;10.70;100.00;100613.69;5093568;28;20055;-66
2023/12/29 01:06:03;;;;;;;11.35;2.95;;;;;;;10.69;100.00;100635.78;5093965;28;20469;-66
2023/12/29 01:08:51;;;;;;;10.82;2.88;;;;;;;10.64;100.00;100623.81;5093318;28;20102;-68
2023/12/29 01:11:39;;;;;;;9.15;2.72;;;;;;;10.60;100.00;100617.25;5093196;28;20044;-66
2023/12/29 01:14:28;;;;;;;12.68;3.17;;;;;;;10.57;100.00;100620.53;5087667;28;20092;-66
2023/12/29 01:17:16;;;;;;;11.68;3.05;;;;;;;10.57;100.00;100617.81;5099485;28;20087;-66
2023/12/29 01:20:04;;;;;;;11.65;3.35;;;;;;;10.54;100.00;100631.97;5097422;28;20067;-66
2023/12/29 01:22:52;;;;;;;11.85;3.10;;;;;;;10.56;100.00;100616.19;5085390;28;20446;-66
2023/12/29 01:25:40;;;;;;;11.38;3.13;;;;;;;10.56;100.00;100618.06;5057689;28;20052;-65
2023/12/29 01:28:28;;;;;;;8.40;2.42;;;;;;;10.53;100.00;100616.72;5057933;28;20060;-66
2023/12/29 01:31:16;;;;;;;9.25;3.30;;;;;;;10.51;100.00;100618.06;5072308;28;20130;-66
2023/12/29 01:34:04;;;;;;;12.45;3.05;;;;;;;10.48;100.00;100605.81;5071750;28;20128;-66
2023/12/29 01:36:52;;;;;;;8.52;2.70;;;;;;;10.50;100.00;100617.25;5092660;28;20066;-66
2023/12/29 01:39:40;;;;;;;11.73;3.20;;;;;;;10.44;100.00;100618.38;5078996;28;20408;-66
2023/12/29 01:42:30;;;;;;;14.02;3.28;;;;;;;10.38;100.00;100614.00;5077999;28;20044;-66
2023/12/29 01:45:26;;;;;;;11.63;3.10;;;;;;;10.36;100.00;100619.69;5077215;28;20415;-65
2023/12/29 01:48:14;;;;;;;10.38;3.00;;;;;;;10.30;100.00;100617.28;5086994;28;20110;-66
2023/12/29 01:51:03;;;;;;;7.90;2.35;;;;;;;10.29;100.00;100624.59;5038205;28;20063;-66
2023/12/29 01:53:52;;;;;;;12.80;3.25;;;;;;;10.25;100.00;100618.06;5077733;28;20110;-66
2023/12/29 01:56:40;;;;;;;6.00;2.15;;;;;;;10.28;100.00;100620.25;5076973;28;20051;-66
2023/12/29 01:59:29;;;;;;;10.85;2.85;;;;;;;10.29;100.00;100621.06;5076356;28;20133;-65
2023/12/29 02:02:17;;;;;;;10.65;3.15;;;;;;;10.24;100.00;100614.47;5057405;28;20063;-66
2023/12/29 02:05:06;;;;;;;8.63;2.90;;;;;;;10.24;100.00;100616.41;5079910;28;20577;-65
2023/12/29 02:07:54;;;;;;;10.32;3.00;;;;;;;10.22;100.00;100616.69;5064132;28;20055;-65
2023/12/29 02:10:42;;;;;;;9.55;3.33;;;;;;;10.22;100.00;100619.41;5056710;28;20079;-66
2023/12/29 02:13:30;;;;;;;10.15;2.67;;;;;;;10.23;100.00;100628.38;5076047;28;20051;-66
2023/12/29 02:16:37;;;;;;;12.05;3.10;;;;;;;10.23;100.00;100618.31;5098482;28;20051;-65
2023/12/29 02:19:36;;;;;;;7.70;2.60;;;;;;;10.27;100.00;100613.16;5108095;28;20496;-66
2023/12/29 02:22:25;;;;;;;13.07;3.70;;;;;;;10.21;100.00;100622.41;5072344;28;20089;-66
2023/12/29 02:25:13;;;;;;;8.80;2.85;;;;;;;10.19;100.00;100621.84;5043929;28;20465;-66
2023/12/29 02:28:13;;;;;;;12.63;3.30;;;;;;;10.17;100.00;100630.31;5058075;28;20124;-66
2023/12/29 02:31:08;;;;;;;8.98;2.80;;;;;;;10.19;100.00;100611.75;5067126;28;20120;-66
2023/12/29 02:33:57;;;;;;;8.18;2.63;;;;;;;10.19;100.00;100610.94;5083567;28;20496;-65
2023/12/29 02:36:45;;;;;;;11.73;3.30;;;;;;;10.16;100.00;100604.13;5061865;28;20040;-65
2023/12/29 02:39:33;;;;;;;9.32;2.92;;;;;;;10.20;100.00;100588.09;5091662;28;20047;-65
2023/12/29 02:42:21;;;;;;;13.32;3.10;;;;;;;10.24;100.00;100606.31;5075847;28;20078;-65
2023/12/29 02:45:10;;;;;;;10.55;2.70;;;;;;;10.22;100.00;100600.34;5049640;28;20492;-66
2023/12/29 02:47:59;;;;;;;12.13;2.95;;;;;;;10.23;100.00;100593.81;5093498;28;20396;-66
2023/12/29 02:50:47;;;;;;;10.43;2.90;;;;;;;10.22;100.00;100600.34;5059576;28;20141;-65
2023/12/29 02:53:35;;;;;;;10.48;3.10;;;;;;;10.26;100.00;100597.06;5075268;28;20051;-65
2023/12/29 02:56:23;;;;;;;9.80;2.55;;;;;;;10.25;100.00;100601.72;5075875;28;20080;-65
2023/12/29 02:59:11;;;;;;;14.07;2.90;;;;;;;10.31;100.00;100602.56;5079038;28;20048;-65
2023/12/29 03:02:01;;;;;;;9.38;3.00;;;;;;;10.29;100.00;100596.56;5080097;28;20450;-65
2023/12/29 03:04:49;;;;;;;12.73;3.00;;;;;;;10.28;100.00;100608.53;5096249;28;20044;-65
2023/12/29 03:07:39;;;;;;;13.45;3.28;;;;;;;10.29;100.00;100596.56;5080073;28;20054;-65
2023/12/29 03:10:27;;;;;;;10.73;3.00;;;;;;;10.30;100.00;100590.03;5080379;28;20168;-65
2023/12/29 03:13:15;;;;;;;10.98;2.80;;;;;;;10.29;100.00;100589.19;5067049;28;20040;-65
2023/12/29 03:16:03;;;;;;;10.38;3.08;;;;;;;10.31;100.00;100587.03;5074079;28;20044;-65
2023/12/29 03:18:51;;;;;;;9.00;2.50;;;;;;;10.33;100.00;100570.44;5076139;28;20040;-66
2023/12/29 03:21:40;;;;;;;8.30;2.80;;;;;;;10.31;100.00;100586.22;5080381;28;20529;-66
2023/12/29 03:24:30;;;;;;;8.48;2.60;;;;;;;10.28;100.00;100582.13;5080835;28;20048;-66
2023/12/29 03:27:18;;;;;;;12.48;3.30;;;;;;;10.31;100.00;100569.88;5095336;28;20492;-65
2023/12/29 03:30:07;;;;;;;14.13;3.10;;;;;;;10.29;100.00;100578.31;5081502;28;20510;-66
2023/12/29 03:32:55;;;;;;;12.10;3.00;;;;;;;10.32;100.00;100582.38;5061379;28;20052;-65
2023/12/29 03:35:43;;;;;;;10.65;2.90;;;;;;;10.30;100.00;100590.03;5060626;28;20056;-66
2023/12/29 03:38:33;;;;;;;8.40;2.42;;;;;;;10.32;100.00;100580.50;5074900;28;20045;-66
2023/12/29 03:41:21;;;;;;;13.15;2.88;;;;;;;10.29;100.00;100575.59;5073084;28;20097;-66
2023/12/29 03:44:09;;;;;;;12.02;2.97;;;;;;;10.30;100.00;100577.22;5079505;28;20053;-64
2023/12/29 03:46:57;;;;;;;11.00;3.20;;;;;;;10.27;100.00;100585.94;5072800;28;20070;-67
2023/12/29 03:49:45;;;;;;;11.55;3.15;;;;;;;10.24;100.00;100581.81;5085182;28;20136;-66
2023/12/29 03:52:33;;;;;;;10.65;3.63;;;;;;;10.27;100.00;100585.09;5081308;28;20071;-67
2023/12/29 03:55:21;;;;;;;11.25;2.80;;;;;;;10.30;100.00;100574.50;5061611;28;20489;-65
2023/12/29 03:58:09;;;;;;;10.85;2.97;;;;;;;10.31;100.00;100576.13;5094351;28;20114;-66
2023/12/29 04:00:57;;;;;;;5.82;2.20;;;;;;;10.30;100.00;100571.78;5075644;28;20045;-65
2023/12/29 04:03:46;;;;;;;10.90;2.85;;;;;;;10.30;100.00;100570.97;5079024;28;20044;-65
2023/12/29 04:06:34;;;;;;;10.25;3.22;;;;;;;10.36;100.00;100578.03;5089475;28;20035;-65
2023/12/29 04:09:22;;;;;;;10.68;3.03;;;;;;;10.34;100.00;100572.03;5087832;28;20140;-66
2023/12/29 04:12:10;;;;;;;15.40;3.60;;;;;;;10.31;100.00;100575.31;5086601;28;20039;-66
2023/12/29 04:14:58;;;;;;;13.93;3.40;;;;;;;10.33;100.00;100573.97;5087002;28;20070;-65
2023/12/29 04:17:46;;;;;;;8.77;2.42;;;;;;;10.32;100.00;100561.44;5078974;28;20518;-65
2023/12/29 04:20:34;;;;;;;10.75;3.00;;;;;;;10.32;100.00;100571.50;5099844;28;20127;-66
2023/12/29 04:23:22;;;;;;;8.88;2.55;;;;;;;10.31;100.00;100570.69;5114018;28;20047;-66
2023/12/29 04:26:11;;;;;;;9.88;3.03;;;;;;;10.30;100.00;100570.97;5095129;28;20040;-66
2023/12/29 04:28:59;;;;;;;12.20;2.83;;;;;;;10.30;100.00;100571.78;5064541;28;20035;-65
2023/12/29 04:31:47;;;;;;;12.63;3.00;;;;;;;10.29;100.00;100572.03;5101124;28;20123;-66
2023/12/29 04:34:35;;;;;;;11.68;2.97;;;;;;;10.27;100.00;100585.94;5099590;28;20382;-65
2023/12/29 04:37:24;;;;;;;11.23;3.22;;;;;;;10.29;100.00;100578.31;5063473;28;20048;-66
2023/12/29 04:40:13;;;;;;;9.55;3.08;;;;;;;10.28;100.00;100568.50;5093820;28;20173;-66
2023/12/29 04:43:01;;;;;;;13.05;3.67;;;;;;;10.31;100.00;100583.50;5077597;28;20040;-66
2023/12/29 04:45:49;;;;;;;11.23;3.13;;;;;;;10.32;100.00;100585.13;5058068;28;20048;-66
2023/12/29 04:48:37;;;;;;;11.38;3.08;;;;;;;10.31;100.00;100583.50;5072771;28;20059;-66
2023/12/29 04:51:25;;;;;;;14.45;3.60;;;;;;;10.32;100.00;100587.84;5059483;28;20037;-66
2023/12/29 04:54:13;;;;;;;12.05;3.00;;;;;;;10.31;100.00;100575.31;5088585;28;20147;-67
2023/12/29 04:57:01;;;;;;;11.40;3.30;;;;;;;10.32;100.00;100588.69;5106496;28;20043;-66
2023/12/29 04:59:49;;;;;;;15.32;3.95;;;;;;;10.31;100.00;100586.22;5113436;28;20120;-66
2023/12/29 05:02:37;;;;;;;9.88;2.67;;;;;;;10.31;100.00;100589.75;5113194;28;20130;-66
2023/12/29 05:05:24;;;;;;;12.32;3.55;;;;;;;10.31;100.00;100591.66;5092668;28;20048;-65
2023/12/29 05:08:12;;;;;;;14.45;3.20;;;;;;;10.28;100.00;100592.19;5081966;28;20036;-65
2023/12/29 05:11:00;;;;;;;11.23;3.20;;;;;;;10.29;100.00;100589.19;5112038;28;20514;-65
2023/12/29 05:13:48;;;;;;;15.35;3.70;;;;;;;10.27;100.00;100595.97;5091194;28;20575;-66
2023/12/29 05:16:36;;;;;;;12.85;3.05;;;;;;;10.26;100.00;100597.06;5092441;28;20048;-66
2023/12/29 05:19:24;;;;;;;11.63;2.95;;;;;;;10.25;100.00;100585.38;5093401;28;20059;-65
2023/12/29 05:22:17;;;;;;;17.05;4.68;;;;;;;10.22;100.00;100592.19;5092312;28;20584;-66
2023/12/29 05:25:05;;;;;;;13.93;3.70;;;;;;;10.26;100.00;100578.81;5097633;28;20066;-65
2023/12/29 05:27:53;;;;;;;13.88;3.00;;;;;;;10.34;100.00;100593.84;5092186;28;20047;-65
2023/12/29 05:30:41;;;;;;;13.95;3.25;;;;;;;10.29;100.00;100593.84;5093370;28;20044;-65
2023/12/29 05:33:30;;;;;;;14.80;3.50;;;;;;;10.27;100.00;100595.97;5101644;28;20075;-66
2023/12/29 05:36:20;;;;;;;17.33;4.15;;;;;;;10.22;100.00;100592.19;5051760;28;20051;-66
2023/12/29 05:39:08;;;;;;;14.73;4.03;;;;;;;10.22;100.00;100594.91;5093052;28;20048;-66
2023/12/29 05:41:56;;;;;;;17.13;4.07;;;;;;;10.19;100.00;100600.88;5092251;28;20504;-66
2023/12/29 05:44:44;;;;;;;17.98;3.63;;;;;;;10.20;100.00;100599.81;5092602;28;20040;-65
2023/12/29 05:47:32;;;;;;;17.60;4.03;;;;;;;10.12;100.00;100592.16;5077783;28;20043;-66
2023/12/29 05:50:20;;;;;;;19.75;4.55;;;;;;;10.08;100.00;100588.34;5077951;28;20048;-66
2023/12/29 05:53:08;;;;;;;18.25;4.03;;;;;;;10.05;100.00;100609.84;5091347;28;20040;-66
2023/12/29 05:55:56;;;;;;;17.55;4.00;;;;;;;10.04;100.00;100603.59;5089791;28;20131;-65
2023/12/29 05:58:44;;;;;;;15.85;3.88;;;;;;;10.05;100.00;100609.84;5099034;28;20058;-66
2023/12/29 06:01:32;;;;;;;14.77;4.05;;;;;;;10.10;100.00;100601.69;5111413;28;20071;-64
2023/12/29 06:04:21;;;;;;;16.95;3.80;;;;;;;10.12;100.00;100603.03;5099209;28;20043;-65
2023/12/29 06:07:09;;;;;;;14.63;4.07;;;;;;;10.14;100.00;100598.16;5077413;28;20039;-66
2023/12/29 06:09:57;;;;;;;18.60;3.95;;;;;;;10.20;100.00;100580.75;5076899;28;20202;-68
2023/12/29 06:12:45;;;;;;;19.40;4.15;;;;;;;10.17;100.00;100592.19;5071651;28;20079;-65
2023/12/29 06:15:33;;;;;;;10.65;2.83;;;;;;;10.16;100.00;100595.97;5090554;28;20044;-66
2023/12/29 06:18:21;;;;;;;11.25;2.85;;;;;;;10.17;100.00;100596.78;5090179;28;20048;-66
2023/12/29 06:21:09;;;;;;;20.00;3.67;;;;;;;10.19;100.00;100595.44;5092133;28;20484;-65
2023/12/29 06:23:57;;;;;;;11.52;3.05;;;;;;;10.18;100.00;100591.09;5087186;28;20071;-65
2023/12/29 06:26:45;;;;;;;12.02;2.88;;;;;;;10.16;100.00;100600.59;5081956;28;20074;-65
2023/12/29 06:29:33;;;;;;;15.63;3.60;;;;;;;10.16;100.00;100595.97;5071296;28;20044;-66
2023/12/29 06:32:21;;;;;;;12.63;3.15;;;;;;;10.23;100.00;100604.69;5072068;28;20097;-66
2023/12/29 06:35:12;;;;;;;13.75;3.67;;;;;;;10.20;100.00;100583.47;5071877;28;20083;-67
2023/12/29 06:38:00;;;;;;;13.20;3.40;;;;;;;10.14;100.00;100592.69;5076408;28;20055;-68
2023/12/29 06:41:07;;;;;;;13.69;2.97;;;;;;;10.19;100.00;100586.44;5018250;28;10001019;-66
2023/12/29 06:43:55;;;;;;;16.17;4.38;;;;;;;10.12;100.00;100583.16;5068476;28;20321;-66
2023/12/29 06:46:43;;;;;;;12.10;2.97;;;;;;;10.09;100.00;100575.56;5068144;28;20647;-66
2023/12/29 06:49:31;;;;;;;13.50;3.42;;;;;;;10.10;100.00;100585.34;5109813;28;20050;-66
2023/12/29 06:52:20;;;;;;;18.92;3.92;;;;;;;10.12;100.00;100577.72;5084090;28;20052;-65
2023/12/29 06:55:08;;;;;;;11.23;3.50;;;;;;;10.08;100.00;100577.47;5087970;28;20539;-67
2023/12/29 06:57:56;;;;;;;10.27;3.15;;;;;;;10.08;100.00;100588.34;5072155;28;20105;-67
2023/12/29 07:00:45;;;;;;;11.00;2.97;;;;;;;10.15;100.00;100580.75;5071453;28;20051;-67
2023/12/29 07:03:33;;;;;;;15.82;3.72;;;;;;;10.14;100.00;100564.66;5072755;28;20130;-66
2023/12/29 07:06:21;;;;;;;11.05;2.85;;;;;;;10.10;100.00;100577.19;5088070;28;20055;-66
2023/12/29 07:09:10;;;;;;;9.88;2.90;;;;;;;10.09;100.00;100579.09;5088126;28;20520;-65
2023/12/29 07:11:58;;;;;;;12.30;3.38;;;;;;;10.03;100.00;100591.06;5087519;28;20040;-66
2023/12/29 07:14:46;;;;;;;12.35;3.13;;;;;;;10.09;100.00;100584.53;5045117;28;20061;-66
2023/12/29 07:17:34;;;;;;;13.27;3.50;;;;;;;10.09;100.00;100567.38;5072411;28;20075;-67
2023/12/29 07:20:23;;;;;;;10.07;2.90;;;;;;;10.10;100.00;100561.69;5038588;28;20052;-65
2023/12/29 07:23:11;;;;;;;13.88;3.60;;;;;;;10.15;100.00;100550.78;5068291;28;20056;-65
2023/12/29 07:25:59;;;;;;;9.07;3.15;;;;;;;10.11;100.00;100560.59;5090122;28;20185;-66
2023/12/29 07:28:47;;;;;;;14.85;3.17;;;;;;;10.18;100.00;100558.41;5079120;28;20539;-67
2023/12/29 07:31:39;;;;;;;18.88;3.30;;;;;;;10.15;100.00;100560.84;5065740;28;20403;-66
2023/12/29 07:34:27;;;;;;;9.15;3.05;;;;;;;10.14;100.00;100570.91;5092864;28;20511;-67
2023/12/29 07:37:16;;;;;;;12.57;3.30;;;;;;;10.11;100.00;100574.19;5081213;28;20046;-67
2023/12/29 07:40:04;;;;;;;12.75;3.70;;;;;;;10.14;100.00;100562.75;5096035;28;20051;-66
2023/12/29 07:42:52;;;;;;;11.35;3.45;;;;;;;10.16;100.00;100555.13;5096088;28;20073;-68
2023/12/29 07:45:43;;;;;;;11.32;3.50;;;;;;;10.12;100.00;100583.97;5095771;28;20052;-66
2023/12/29 07:48:31;;;;;;;10.77;2.83;;;;;;;10.10;100.00;100575.28;5082549;28;20044;-67
2023/12/29 07:51:19;;;;;;;10.27;3.38;;;;;;;10.08;100.00;100566.56;5116513;28;20415;-67
2023/12/29 07:54:08;;;;;;;10.68;3.22;;;;;;;10.12;100.00;100570.38;5087144;28;20521;-67
2023/12/29 07:56:56;;;;;;;11.85;3.40;;;;;;;10.11;100.00;100571.47;5076435;28;20052;-67
2023/12/29 07:59:44;;;;;;;17.00;4.47;;;;;;;10.09;100.00;100573.66;5083575;28;20045;-65
2023/12/29 08:02:32;;;;;;;16.45;3.95;;;;;;;10.15;100.00;100566.28;5079355;28;20052;-67
2023/12/29 08:05:20;;;;;;;12.60;3.20;;;;;;;10.15;100.00;100571.72;5090299;28;20069;-66
2023/12/29 08:08:08;;;;;;;13.18;3.47;;;;;;;10.14;100.00;100581.00;5089926;28;20046;-64
2023/12/29 08:10:56;;;;;;;10.40;3.20;;;;;;;10.13;100.00;100569.31;5110352;28;20102;-64
2023/12/29 08:13:47;;;;;;;50.40;12.52;;;;;;;10.27;100.00;100564.13;5098874;28;20512;-67
2023/12/29 08:16:40;;;;;;;36.28;9.40;;;;;;;10.32;100.00;100560.59;5082507;28;20046;-66
2023/12/29 08:19:28;;;;;;;10.73;3.03;;;;;;;10.21;100.00;100557.84;5082496;28;20516;-67
2023/12/29 08:22:16;;;;;;;12.20;4.07;;;;;;;10.21;100.00;100560.59;5073772;28;20044;-66
2023/12/29 08:25:04;;;;;;;15.95;5.60;;;;;;;10.27;100.00;100569.59;5074164;28;20076;-67
2023/12/29 08:27:52;;;;;;;10.40;3.10;;;;;;;10.25;100.00;100571.75;5074241;28;20417;-67
2023/12/29 08:30:41;;;;;;;13.57;4.30;;;;;;;10.20;100.00;100572.56;5073950;28;20049;-67
2023/12/29 08:33:29;;;;;;;9.80;2.78;;;;;;;10.16;100.00;100574.19;5059634;28;20052;-67
2023/12/29 08:36:19;;;;;;;7.95;2.85;;;;;;;10.20;100.00;100580.75;5073708;28;20048;-67
2023/12/29 08:39:09;;;;;;;29.25;7.88;;;;;;;10.22;100.00;100591.34;5057913;28;20048;-66
2023/12/29 08:41:57;;;;;;;10.05;2.83;;;;;;;10.17;100.00;100584.00;5058927;28;20515;-66
2023/12/29 08:44:45;;;;;;;7.25;2.33;;;;;;;10.15;100.00;100591.63;5087320;28;20051;-67
2023/12/29 08:47:33;;;;;;;7.85;2.80;;;;;;;10.16;100.00;100590.53;5070264;28;20476;-66
2023/12/29 08:50:21;;;;;;;9.25;3.08;;;;;;;10.21;100.00;100592.44;5092135;28;20524;-67
2023/12/29 08:53:10;;;;;;;37.65;10.63;;;;;;;10.36;100.00;100610.72;5085329;28;20167;-67
2023/12/29 08:55:58;;;;;;;10.75;3.50;;;;;;;10.32;100.00;100585.13;5064818;28;20590;-67
2023/12/29 08:58:46;;;;;;;16.65;4.35;;;;;;;10.31;100.00;100588.94;5081952;28;20051;-67
2023/12/29 09:01:34;;;;;;;23.00;6.63;;;;;;;10.37;100.00;100590.59;5108379;28;20040;-67
2023/12/29 09:04:22;;;;;;;18.88;5.63;;;;;;;10.37;100.00;100598.75;5057883;28;20041;-68
2023/12/29 09:07:10;;;;;;;8.80;2.70;;;;;;;10.31;100.00;100600.63;5057664;28;20143;-67
2023/12/29 09:10:01;;;;;;;8.70;2.63;;;;;;;10.32;100.00;100620.50;5072405;28;20049;-67
2023/12/29 09:12:50;;;;;;;9.93;3.03;;;;;;;10.31;100.00;100599.81;5068157;28;20129;-65
2023/12/29 09:15:38;;;;;;;21.90;6.40;;;;;;;10.31;100.00;100613.44;5055161;28;20079;-66
2023/12/29 09:18:26;;;;;;;8.43;2.60;;;;;;;10.30;100.00;100607.19;5072323;28;20040;-67
2023/12/29 09:21:14;;;;;;;7.13;2.10;;;;;;;10.19;100.00;100609.03;5062459;28;20036;-67
2023/12/29 09:24:03;;;;;;;7.82;2.25;;;;;;;10.18;100.00;100626.47;5056762;28;20059;-66
2023/12/29 09:26:52;;;;;;;6.38;2.05;;;;;;;10.15;100.00;100627.03;5072351;28;20127;-67
2023/12/29 09:29:41;;;;;;;6.05;2.28;;;;;;;10.14;100.00;100633.53;5035401;28;20067;-66
2023/12/29 09:32:29;;;;;;;19.17;4.68;;;;;;;10.19;100.00;100638.19;5038089;28;20045;-67
2023/12/29 09:35:17;;;;;;;10.30;2.83;;;;;;;10.20;100.00;100646.09;5038869;28;20138;-66
2023/12/29 09:38:05;;;;;;;11.85;3.33;;;;;;;10.20;100.00;100634.38;5054511;28;20048;-67
2023/12/29 09:40:54;;;;;;;4.72;1.92;;;;;;;10.17;100.00;100629.47;5052852;28;20119;-66
2023/12/29 09:43:44;;;;;;;7.13;2.15;;;;;;;10.14;100.00;100630.81;5040971;28;20045;-66
2023/12/29 09:46:33;;;;;;;5.53;2.40;;;;;;;10.15;100.00;100637.06;5044094;28;20052;-67
2023/12/29 09:49:21;;;;;;;22.63;6.90;;;;;;;10.18;100.00;100637.38;5057394;28;20582;-67
2023/12/29 09:52:12;;;;;;;6.75;1.90;;;;;;;10.19;100.00;100632.72;5056768;28;20051;-65
2023/12/29 09:55:00;;;;;;;11.88;3.78;;;;;;;10.22;100.00;100633.03;5048149;28;20045;-67
2023/12/29 09:57:49;;;;;;;18.90;6.45;;;;;;;10.29;100.00;100632.75;5036945;28;20136;-66
2023/12/29 10:00:38;;;;;;;24.50;7.50;;;;;;;10.29;100.00;100642.84;5054886;28;20622;-67
2023/12/29 10:03:26;;;;;;;12.52;4.03;;;;;;;10.31;100.00;100641.50;5069239;28;20098;-67
2023/12/29 10:06:19;;;;;;;8.82;3.63;;;;;;;10.29;100.00;100659.19;5091627;28;20040;-66
2023/12/29 10:09:12;;;;;;;16.52;4.32;;;;;;;10.29;100.00;100648.28;5090854;28;20059;-68
2023/12/29 10:12:02;;;;;;;6.72;2.38;;;;;;;10.28;100.00;100646.66;5061052;28;20055;-66
2023/12/29 10:15:13;;;;;;;12.70;3.78;;;;;;;10.31;100.00;100637.94;5079885;28;20044;-67
2023/12/29 10:18:26;;;;;;;4.57;1.90;;;;;;;10.34;100.00;100638.25;5064768;28;20060;-67
2023/12/29 10:21:27;;;;;;;15.07;4.35;;;;;;;10.31;100.00;100635.22;5091291;28;20502;-67
2023/12/29 10:24:20;;;;;;;7.72;3.20;;;;;;;10.34;100.00;100640.97;5064039;28;20040;-67
2023/12/29 10:27:09;;;;;;;5.53;2.30;;;;;;;10.32;100.00;100650.47;5076926;28;20161;-68
2023/12/29 10:29:58;;;;;;;2.15;1.45;;;;;;;10.26;100.00;100646.91;5063097;28;20044;-67
2023/12/29 10:32:50;;;;;;;8.65;3.22;;;;;;;10.29;100.00;100664.63;5076136;28;20505;-67
2023/12/29 10:35:39;;;;;;;9.73;3.03;;;;;;;10.30;100.00;100666.28;5077584;28;20048;-66
2023/12/29 10:38:27;;;;;;;5.05;2.13;;;;;;;10.32;100.00;100672.25;5076614;28;20523;-67
2023/12/29 10:41:17;;;;;;;4.32;1.75;;;;;;;10.29;100.00;100665.44;5089726;28;20048;-67
2023/12/29 10:44:07;;;;;;;6.57;2.45;;;;;;;10.30;100.00;100672.53;5076622;28;20040;-67
2023/12/29 10:46:55;;;;;;;4.85;2.28;;;;;;;10.33;100.00;100660.28;5077716;28;20113;-67
2023/12/29 10:49:43;;;;;;;3.70;1.80;;;;;;;10.33;100.00;100669.28;5091470;28;20490;-67
2023/12/29 10:52:33;;;;;;;7.13;2.50;;;;;;;10.33;100.00;100665.75;5063066;28;20048;-67
2023/12/29 10:55:24;;;;;;;5.32;2.13;;;;;;;10.51;100.00;100667.94;5056899;28;20048;-67
2023/12/29 10:58:15;;;;;;;4.72;1.80;;;;;;;10.47;100.00;100664.13;5072151;28;20048;-67
2023/12/29 11:01:18;;;;;;;10.05;2.95;;;;;;;10.52;100.00;100661.41;5075908;28;20047;-68
2023/12/29 11:04:09;;;;;;;12.07;4.38;;;;;;;10.47;100.00;100660.59;5062590;28;20136;-67
2023/12/29 11:06:57;;;;;;;5.35;1.92;;;;;;;10.43;100.00;100652.13;5070610;28;20045;-68
2023/12/29 11:09:46;;;;;;;7.40;2.30;;;;;;;10.35;100.00;100658.13;5074599;28;20049;-67
2023/12/29 11:12:35;;;;;;;8.95;2.58;;;;;;;10.31;100.00;100668.72;5094484;28;20407;-67
2023/12/29 11:15:24;;;;;;;8.75;2.95;;;;;;;10.33;100.00;100657.56;5061112;28;20128;-68
2023/12/29 11:18:17;;;;;;;6.15;2.05;;;;;;;10.53;100.00;100656.75;5060146;28;20441;-66
2023/12/29 11:21:05;;;;;;;6.18;1.85;;;;;;;10.56;100.00;100654.31;5070089;28;20032;-66
2023/12/29 11:23:53;;;;;;;7.13;2.17;;;;;;;10.55;100.00;100654.59;5093584;28;20047;-66
2023/12/29 11:26:42;;;;;;;5.13;2.10;;;;;;;10.48;100.00;100638.50;5081926;28;20494;-67
2023/12/29 11:29:30;;;;;;;9.80;2.45;;;;;;;10.48;100.00;100641.22;5059548;28;20062;-67
2023/12/29 11:32:41;;;;;;;8.32;2.63;;;;;;;10.51;100.00;100643.44;5094253;28;20047;-67
2023/12/29 11:35:51;;;;;;;7.72;2.45;;;;;;;10.44;100.00;100645.59;5074711;28;20111;-67
2023/12/29 11:39:04;;;;;;;8.32;2.45;;;;;;;10.42;100.00;100637.69;5067008;28;20035;-67
2023/12/29 11:41:57;;;;;;;8.10;2.70;;;;;;;10.44;100.00;100642.88;5077999;28;20071;-67
2023/12/29 11:44:46;;;;;;;9.75;2.70;;;;;;;10.44;100.00;100648.34;5064819;28;20048;-65
2023/12/29 11:47:38;;;;;;;13.73;2.72;;;;;;;10.45;100.00;100647.22;5096249;28;20427;-66
2023/12/29 11:50:34;;;;;;;11.48;2.97;;;;;;;10.46;100.00;100646.13;5079110;28;20052;-67
2023/12/29 11:53:36;;;;;;;13.60;3.10;;;;;;;10.45;100.00;100647.22;5063300;28;20428;-67
2023/12/29 11:56:24;;;;;;;13.38;3.42;;;;;;;10.46;100.00;100643.41;5083981;28;20415;-66
2023/12/29 11:59:19;;;;;;;13.25;3.63;;;;;;;10.46;100.00;100640.69;5084141;28;20201;-66
2023/12/29 12:02:27;;;;;;;10.07;2.88;;;;;;;10.49;100.00;100634.72;5089233;28;20060;-68
2023/12/29 12:05:44;;;;;;;13.85;3.85;;;;;;;10.53;100.00;100634.97;5101879;28;20040;-67
2023/12/29 12:08:35;;;;;;;10.32;3.03;;;;;;;10.54;100.00;100631.97;5080817;28;20043;-66
2023/12/29 12:11:30;;;;;;;11.00;3.30;;;;;;;10.59;100.00;100623.00;5084534;28;20598;-66
2023/12/29 12:14:43;;;;;;;11.45;3.17;;;;;;;10.59;100.00;100631.16;5087732;28;20036;-66
2023/12/29 12:17:33;;;;;;;11.05;3.97;;;;;;;10.61;100.00;100624.34;5085969;28;20048;-66
2023/12/29 12:20:21;;;;;;;11.75;3.08;;;;;;;10.62;100.00;100617.00;5101819;28;20047;-69
2023/12/29 12:23:14;;;;;;;22.25;8.80;;;;;;;10.62;100.00;100619.72;5104222;28;20040;-64
2023/12/29 12:26:03;;;;;;;13.32;3.70;;;;;;;10.63;100.00;100624.91;5100820;28;20048;-65
2023/12/29 12:28:53;;;;;;;11.40;3.08;;;;;;;10.63;100.00;100610.44;5107227;28;20050;-65
2023/12/29 12:31:57;;;;;;;9.82;2.88;;;;;;;10.62;100.00;100608.81;5085256;28;20051;-62
2023/12/29 12:34:45;;;;;;;12.73;5.03;;;;;;;10.62;100.00;100598.72;5080771;28;20049;-65
2023/12/29 12:37:34;;;;;;;16.75;6.25;;;;;;;10.61;100.00;100602.56;5078760;28;20036;-67
2023/12/29 12:40:27;;;;;;;10.15;3.78;;;;;;;10.64;100.00;100606.63;5073494;28;20046;-65
2023/12/29 12:43:16;;;;;;;9.65;4.32;;;;;;;10.62;100.00;100609.63;5091970;28;20051;-66
2023/12/29 12:46:04;;;;;;;11.82;5.40;;;;;;;10.59;100.00;100610.19;5060202;28;20146;-66
2023/12/29 12:48:53;;;;;;;7.65;3.53;;;;;;;10.55;100.00;100609.09;5109587;28;20047;-66
2023/12/29 12:51:42;;;;;;;7.20;3.10;;;;;;;10.55;100.00;100614.53;5083069;28;20048;-67
2023/12/29 12:54:30;;;;;;;4.80;2.40;;;;;;;10.55;100.00;100609.09;5078399;28;20052;-66